Time,TemperatureF,DewpointF,PressureIn,WindDirection,WindDirectionDegrees,WindSpeedMPH,WindSpeedGustMPH,Humidity,HourlyPrecipIn,Conditions,Clouds,dailyrainin,SoftwareType,DateUTC
2013-07-30 00:00:00,62.8,58.6,30.07,WNW,292,1.0,3.0,86,0.00,,---,0.00,VWS V14.01,2013-07-30 07:00:00,
2013-07-30 00:30:00,62.1,58.5,30.07,WNW,292,0.0,2.0,88,0.00,,---,0.00,VWS V14.01,2013-07-30 07:30:00,
2013-07-30 01:00:00,62.2,58.9,30.07,WNW,292,1.0,3.0,89,0.00,,---,0.00,VWS V14.01,2013-07-30 08:00:00,
2013-07-30 01:30:00,61.5,57.9,30.07,WNW,292,0.0,2.0,88,0.00,,---,0.00,VWS V14.01,2013-07-30 08:30:00,
2013-07-30 02:00:00,61.3,58.7,30.07,WNW,292,1.0,3.0,91,0.00,,---,0.00,VWS V14.01,2013-07-30 09:00:00,
2013-07-30 02:30:00,61.4,58.5,30.07,WNW,292,1.0,3.0,90,0.00,,---,0.00,VWS V14.01,2013-07-30 09:30:00,
2013-07-30 03:00:00,60.8,58.2,30.08,WNW,292,0.0,2.0,91,0.00,,---,0.00,VWS V14.01,2013-07-30 10:00:00,
2013-07-30 03:30:00,60.2,57.9,30.08,WNW,292,0.0,2.0,92,0.00,,---,0.00,VWS V14.01,2013-07-30 10:30:00,
2013-07-30 04:00:00,59.8,57.8,30.09,WNW,292,0.0,2.0,93,0.00,,---,0.00,VWS V14.01,2013-07-30 11:00:00,
2013-07-30 04:30:00,59.3,57.6,30.09,WNW,292,0.0,2.0,94,0.00,,---,0.00,VWS V14.01,2013-07-30 11:30:00,
2013-07-30 05:00:00,59.0,57.3,30.09,WNW,292,0.0,0.0,94,0.00,,---,0.00,VWS V14.01,2013-07-30 12:00:00,
2013-07-30 05:30:00,59.3,57.9,30.10,WNW,292,0.0,1.0,95,0.00,,---,0.00,VWS V14.01,2013-07-30 12:30:00,
2013-07-30 06:00:00,59.0,57.6,30.10,WNW,292,0.0,0.0,95,0.00,,---,0.00,VWS V14.01,2013-07-30 13:00:00,
2013-07-30 06:30:00,59.7,58.6,30.11,WNW,292,0.0,0.0,96,0.00,,---,0.00,VWS V14.01,2013-07-30 13:30:00,
2013-07-30 07:00:00,60.9,60.0,30.12,WNW,292,0.0,2.0,97,0.00,,---,0.00,VWS V14.01,2013-07-30 14:00:00,
2013-07-30 07:30:00,61.9,60.2,30.13,SSW,202,1.0,4.0,94,0.00,,---,0.00,VWS V14.01,2013-07-30 14:30:00,
2013-07-30 08:00:00,63.2,60.5,30.14,SSW,202,0.0,4.0,91,0.00,,---,0.00,VWS V14.01,2013-07-30 15:00:00,
2013-07-30 08:30:00,64.6,61.0,30.14,SE,135,0.0,3.0,88,0.00,,---,0.00,VWS V14.01,2013-07-30 15:30:00,
2013-07-30 09:00:00,65.6,60.6,30.15,SE,135,0.0,3.0,84,0.00,,---,0.00,VWS V14.01,2013-07-30 16:00:00,
2013-07-30 09:30:00,66.6,60.9,30.15,SSW,202,2.0,6.0,82,0.00,,---,0.00,VWS V14.01,2013-07-30 16:30:00,
2013-07-30 10:00:00,67.9,60.8,30.15,SSW,202,3.0,7.0,78,0.00,,---,0.00,VWS V14.01,2013-07-30 17:00:00,
2013-07-30 10:30:00,70.5,61.8,30.15,SSE,158,2.0,6.0,74,0.00,,---,0.00,VWS V14.01,2013-07-30 17:30:00,
2013-07-30 11:00:00,73.1,61.9,30.15,South,180,2.0,6.0,68,0.00,,---,0.00,VWS V14.01,2013-07-30 18:00:00,
2013-07-30 11:30:00,72.2,61.9,30.14,South,180,5.0,11.0,70,0.00,,---,0.00,VWS V14.01,2013-07-30 18:30:00,
2013-07-30 12:00:00,71.9,62.0,30.13,South,180,7.0,13.0,71,0.00,,---,0.00,VWS V14.01,2013-07-30 19:00:00,
2013-07-30 12:30:00,72.7,62.0,30.13,SSW,202,7.0,14.0,69,0.00,,---,0.00,VWS V14.01,2013-07-30 19:30:00,
2013-07-30 13:00:00,72.1,61.4,30.12,South,180,10.0,18.0,69,0.00,,---,0.00,VWS V14.01,2013-07-30 20:00:00,
2013-07-30 13:30:00,72.9,62.1,30.11,SSW,202,8.0,18.0,69,0.00,,---,0.00,VWS V14.01,2013-07-30 20:30:00,
2013-07-30 14:00:00,72.3,61.6,30.10,SSW,202,10.0,20.0,69,0.00,,---,0.00,VWS V14.01,2013-07-30 21:00:00,
2013-07-30 14:30:00,74.1,61.6,30.09,SSW,202,8.0,15.0,65,0.00,,---,0.00,VWS V14.01,2013-07-30 21:30:00,
2013-07-30 15:00:00,73.5,61.9,30.09,South,180,9.0,18.0,67,0.00,,---,0.00,VWS V14.01,2013-07-30 22:00:00,
2013-07-30 15:30:00,74.7,61.7,30.08,SSW,202,9.0,17.0,64,0.00,,---,0.00,VWS V14.01,2013-07-30 22:30:00,
2013-07-30 16:00:00,73.5,61.9,30.09,South,180,9.0,18.0,67,0.00,,---,0.00,VWS V14.01,2013-07-30 23:00:00,
2013-07-30 16:28:00,77.7,61.8,30.06,SW,233,5.0,12.0,58,0.00,,---,0.00,VWS V14.01,2013-07-30 23:28:00,
2013-07-30 16:30:00,77.7,61.8,30.06,SW,233,5.0,12.0,58,0.00,,---,0.00,VWS V14.01,2013-07-30 23:30:00,
2013-07-30 16:58:00,76.9,61.5,30.06,West,281,7.0,14.0,59,0.00,,---,0.00,VWS V14.01,2013-07-30 23:58:00,
2013-07-30 17:00:00,76.9,61.5,30.06,West,281,7.0,14.0,59,0.00,,---,0.00,VWS V14.01,2013-07-31 00:00:00,
2013-07-30 17:28:00,75.8,61.4,30.05,West,264,7.0,14.0,61,0.00,,---,0.00,VWS V14.01,2013-07-31 00:28:00,
2013-07-30 17:30:00,75.8,61.4,30.05,West,264,7.0,14.0,61,0.00,,---,0.00,VWS V14.01,2013-07-31 00:30:00,
2013-07-30 17:58:00,74.2,60.8,30.05,WNW,288,8.0,13.0,63,0.00,,---,0.00,VWS V14.01,2013-07-31 00:58:00,
2013-07-30 18:00:00,74.2,60.8,30.05,WNW,288,8.0,13.0,63,0.00,,---,0.00,VWS V14.01,2013-07-31 01:00:00,
2013-07-30 18:28:00,72.6,60.2,30.06,West,267,8.0,14.0,65,0.00,,---,0.00,VWS V14.01,2013-07-31 01:28:00,
2013-07-30 18:30:00,72.6,60.2,30.06,West,267,8.0,14.0,65,0.00,,---,0.00,VWS V14.01,2013-07-31 01:30:00,
2013-07-30 18:58:00,72.2,59.8,30.06,West,263,7.0,13.0,65,0.00,,---,0.00,VWS V14.01,2013-07-31 01:58:00,
2013-07-30 19:00:00,72.2,59.8,30.06,West,263,7.0,13.0,65,0.00,,---,0.00,VWS V14.01,2013-07-31 02:00:00,
2013-07-30 19:28:00,71.5,59.6,30.07,WSW,255,7.0,10.0,66,0.00,,---,0.00,VWS V14.01,2013-07-31 02:28:00,
2013-07-30 19:30:00,71.5,59.6,30.07,WSW,255,7.0,10.0,66,0.00,,---,0.00,VWS V14.01,2013-07-31 02:30:00,
2013-07-30 19:58:00,69.0,59.2,30.07,West,269,3.0,9.0,71,0.00,,---,0.00,VWS V14.01,2013-07-31 02:58:00,
2013-07-30 20:00:00,69.0,59.2,30.07,West,269,3.0,9.0,71,0.00,,---,0.00,VWS V14.01,2013-07-31 03:00:00,
2013-07-30 20:28:00,67.1,58.9,30.08,West,281,4.0,9.0,75,0.00,,---,0.00,VWS V14.01,2013-07-31 03:28:00,
2013-07-30 20:30:00,67.1,58.9,30.08,West,281,4.0,9.0,75,0.00,,---,0.00,VWS V14.01,2013-07-31 03:30:00,
2013-07-30 20:58:00,66.2,59.2,30.09,West,272,3.0,8.0,78,0.00,,---,0.00,VWS V14.01,2013-07-31 03:58:00,
2013-07-30 21:00:00,66.2,59.2,30.09,West,272,3.0,8.0,78,0.00,,---,0.00,VWS V14.01,2013-07-31 04:00:00,
2013-07-30 21:28:00,65.5,59.2,30.10,West,278,2.0,9.0,80,0.00,,---,0.00,VWS V14.01,2013-07-31 04:28:00,
2013-07-30 21:30:00,65.5,59.2,30.10,West,278,2.0,9.0,80,0.00,,---,0.00,VWS V14.01,2013-07-31 04:30:00,
2013-07-30 22:00:00,64.9,59.3,30.11,WNW,292,3.0,7.0,82,0.00,,---,0.00,VWS V14.01,2013-07-31 05:00:00,
2013-07-30 22:30:00,64.5,59.6,30.11,WNW,292,4.0,7.0,84,0.00,,---,0.00,VWS V14.01,2013-07-31 05:30:00,
2013-07-30 23:00:00,64.1,59.5,30.11,WNW,292,3.0,7.0,85,0.00,,---,0.00,VWS V14.01,2013-07-31 06:00:00,
2013-07-30 23:30:00,64.5,59.6,30.11,WNW,292,4.0,7.0,84,0.00,,---,0.00,VWS V14.01,2013-07-31 06:30:00,